sensor_id;sensor_type;location;lat;lon;timestamp;P1;durP1;ratioP1;P2;durP2;ratioP2
31910;SDS011;18457;52.432;16.914;2024-03-17T00:01:19;17.10;;;5.40;;
31910;SDS011;18457;52.432;16.914;2024-03-17T00:03:50;13.70;;;4.60;;
31910;SDS011;18457;52.432;16.914;2024-03-17T00:06:22;11.90;;;4.30;;
31910;SDS011;18457;52.432;16.914;2024-03-17T00:08:53;12.70;;;4.90;;
31910;SDS011;18457;52.432;16.914;2024-03-17T00:11:25;11.50;;;4.10;;
31910;SDS011;18457;52.432;16.914;2024-03-17T00:13:57;8.10;;;3.30;;
31910;SDS011;18457;52.432;16.914;2024-03-17T00:16:29;15.90;;;4.40;;
31910;SDS011;18457;52.432;16.914;2024-03-17T00:19:00;15.10;;;4.30;;
31910;SDS011;18457;52.432;16.914;2024-03-17T00:21:32;11.00;;;3.30;;
31910;SDS011;18457;52.432;16.914;2024-03-17T00:24:04;13.10;;;3.70;;
31910;SDS011;18457;52.432;16.914;2024-03-17T00:26:37;9.30;;;3.40;;
31910;SDS011;18457;52.432;16.914;2024-03-17T00:29:08;13.10;;;3.70;;
31910;SDS011;18457;52.432;16.914;2024-03-17T00:31:40;9.60;;;3.10;;
31910;SDS011;18457;52.432;16.914;2024-03-17T00:34:12;17.10;;;3.50;;
31910;SDS011;18457;52.432;16.914;2024-03-17T00:36:45;18.00;;;4.00;;
31910;SDS011;18457;52.432;16.914;2024-03-17T00:39:16;15.50;;;3.70;;
31910;SDS011;18457;52.432;16.914;2024-03-17T00:41:48;11.90;;;3.30;;
31910;SDS011;18457;52.432;16.914;2024-03-17T00:44:20;12.40;;;3.80;;
31910;SDS011;18457;52.432;16.914;2024-03-17T00:46:51;6.80;;;2.70;;
31910;SDS011;18457;52.432;16.914;2024-03-17T00:49:23;14.90;;;4.60;;
31910;SDS011;18457;52.432;16.914;2024-03-17T00:51:55;17.70;;;4.00;;
31910;SDS011;18457;52.432;16.914;2024-03-17T00:54:26;13.50;;;4.10;;
31910;SDS011;18457;52.432;16.914;2024-03-17T00:56:58;15.30;;;4.20;;
31910;SDS011;18457;52.432;16.914;2024-03-17T00:59:29;17.70;;;4.50;;
31910;SDS011;18457;52.432;16.914;2024-03-17T01:02:02;16.50;;;4.40;;
31910;SDS011;18457;52.432;16.914;2024-03-17T01:04:34;10.90;;;3.70;;
31910;SDS011;18457;52.432;16.914;2024-03-17T01:07:06;14.70;;;4.40;;
31910;SDS011;18457;52.432;16.914;2024-03-17T01:09:38;10.10;;;4.10;;
31910;SDS011;18457;52.432;16.914;2024-03-17T01:12:10;13.60;;;3.90;;
31910;SDS011;18457;52.432;16.914;2024-03-17T01:14:42;15.50;;;2.30;;
31910;SDS011;18457;52.432;16.914;2024-03-17T01:17:14;14.40;;;3.60;;
31910;SDS011;18457;52.432;16.914;2024-03-17T01:19:48;15.50;;;3.30;;
31910;SDS011;18457;52.432;16.914;2024-03-17T01:22:20;13.80;;;3.20;;
31910;SDS011;18457;52.432;16.914;2024-03-17T01:24:52;11.50;;;3.30;;
31910;SDS011;18457;52.432;16.914;2024-03-17T01:27:24;11.10;;;2.40;;
31910;SDS011;18457;52.432;16.914;2024-03-17T01:29:56;8.70;;;2.40;;
31910;SDS011;18457;52.432;16.914;2024-03-17T01:32:27;12.10;;;2.40;;
31910;SDS011;18457;52.432;16.914;2024-03-17T01:34:59;7.00;;;2.10;;
31910;SDS011;18457;52.432;16.914;2024-03-17T01:37:31;11.10;;;2.40;;
31910;SDS011;18457;52.432;16.914;2024-03-17T01:40:03;9.20;;;2.60;;
31910;SDS011;18457;52.432;16.914;2024-03-17T01:42:38;10.70;;;2.70;;
31910;SDS011;18457;52.432;16.914;2024-03-17T01:45:27;6.00;;;1.90;;
31910;SDS011;18457;52.432;16.914;2024-03-17T01:48:01;18.80;;;3.40;;
31910;SDS011;18457;52.432;16.914;2024-03-17T01:50:39;13.60;;;2.70;;
31910;SDS011;18457;52.432;16.914;2024-03-17T01:55:43;11.50;;;2.40;;
31910;SDS011;18457;52.432;16.914;2024-03-17T01:58:16;13.40;;;3.60;;
31910;SDS011;18457;52.432;16.914;2024-03-17T02:00:50;9.90;;;3.90;;
31910;SDS011;18457;52.432;16.914;2024-03-17T02:03:21;9.80;;;3.00;;
31910;SDS011;18457;52.432;16.914;2024-03-17T02:05:54;13.10;;;2.90;;
31910;SDS011;18457;52.432;16.914;2024-03-17T02:08:25;9.20;;;3.60;;
31910;SDS011;18457;52.432;16.914;2024-03-17T02:10:57;7.30;;;2.70;;
31910;SDS011;18457;52.432;16.914;2024-03-17T02:13:29;18.50;;;3.00;;
31910;SDS011;18457;52.432;16.914;2024-03-17T02:16:01;8.20;;;2.90;;
31910;SDS011;18457;52.432;16.914;2024-03-17T02:18:33;15.30;;;3.30;;
31910;SDS011;18457;52.432;16.914;2024-03-17T02:21:05;15.00;;;3.50;;
31910;SDS011;18457;52.432;16.914;2024-03-17T02:23:38;10.80;;;2.90;;
31910;SDS011;18457;52.432;16.914;2024-03-17T02:26:10;13.10;;;3.00;;
31910;SDS011;18457;52.432;16.914;2024-03-17T02:28:42;17.50;;;4.00;;
31910;SDS011;18457;52.432;16.914;2024-03-17T02:31:15;12.30;;;3.20;;
31910;SDS011;18457;52.432;16.914;2024-03-17T02:33:47;12.80;;;2.10;;
31910;SDS011;18457;52.432;16.914;2024-03-17T02:36:19;22.70;;;3.60;;
31910;SDS011;18457;52.432;16.914;2024-03-17T02:38:51;16.00;;;3.10;;
31910;SDS011;18457;52.432;16.914;2024-03-17T02:41:43;13.70;;;2.40;;
31910;SDS011;18457;52.432;16.914;2024-03-17T02:44:15;6.10;;;2.30;;
31910;SDS011;18457;52.432;16.914;2024-03-17T02:46:46;8.70;;;2.30;;
31910;SDS011;18457;52.432;16.914;2024-03-17T02:49:18;12.20;;;2.90;;
31910;SDS011;18457;52.432;16.914;2024-03-17T02:51:51;9.20;;;3.30;;
31910;SDS011;18457;52.432;16.914;2024-03-17T02:54:23;21.10;;;2.30;;
31910;SDS011;18457;52.432;16.914;2024-03-17T02:57:04;15.30;;;3.90;;
31910;SDS011;18457;52.432;16.914;2024-03-17T02:59:36;11.60;;;2.60;;
31910;SDS011;18457;52.432;16.914;2024-03-17T03:02:10;12.00;;;2.70;;
31910;SDS011;18457;52.432;16.914;2024-03-17T03:04:45;7.80;;;2.20;;
31910;SDS011;18457;52.432;16.914;2024-03-17T03:07:16;10.00;;;2.50;;
31910;SDS011;18457;52.432;16.914;2024-03-17T03:09:48;11.40;;;2.80;;
31910;SDS011;18457;52.432;16.914;2024-03-17T03:12:20;8.80;;;2.70;;
31910;SDS011;18457;52.432;16.914;2024-03-17T03:14:52;8.40;;;2.30;;
31910;SDS011;18457;52.432;16.914;2024-03-17T03:17:23;10.80;;;3.10;;
31910;SDS011;18457;52.432;16.914;2024-03-17T03:19:55;14.10;;;2.10;;
31910;SDS011;18457;52.432;16.914;2024-03-17T03:22:27;14.60;;;2.50;;
31910;SDS011;18457;52.432;16.914;2024-03-17T03:24:58;14.10;;;2.80;;
31910;SDS011;18457;52.432;16.914;2024-03-17T03:30:03;9.20;;;2.20;;
31910;SDS011;18457;52.432;16.914;2024-03-17T03:32:37;13.40;;;2.30;;
31910;SDS011;18457;52.432;16.914;2024-03-17T03:35:09;14.40;;;2.70;;
31910;SDS011;18457;52.432;16.914;2024-03-17T03:37:41;15.20;;;2.70;;
31910;SDS011;18457;52.432;16.914;2024-03-17T03:40:12;8.00;;;2.30;;
31910;SDS011;18457;52.432;16.914;2024-03-17T03:42:45;10.30;;;2.80;;
31910;SDS011;18457;52.432;16.914;2024-03-17T03:45:17;10.80;;;2.30;;
31910;SDS011;18457;52.432;16.914;2024-03-17T03:47:49;6.70;;;2.40;;
31910;SDS011;18457;52.432;16.914;2024-03-17T03:50:21;8.70;;;1.90;;
31910;SDS011;18457;52.432;16.914;2024-03-17T03:52:52;3.60;;;1.50;;
31910;SDS011;18457;52.432;16.914;2024-03-17T03:55:24;12.70;;;2.20;;
31910;SDS011;18457;52.432;16.914;2024-03-17T03:57:55;14.80;;;2.60;;
31910;SDS011;18457;52.432;16.914;2024-03-17T04:00:26;13.90;;;2.30;;
31910;SDS011;18457;52.432;16.914;2024-03-17T04:03:00;12.80;;;2.00;;
31910;SDS011;18457;52.432;16.914;2024-03-17T04:05:31;7.70;;;1.60;;
31910;SDS011;18457;52.432;16.914;2024-03-17T04:08:03;9.20;;;2.20;;
31910;SDS011;18457;52.432;16.914;2024-03-17T04:10:35;17.80;;;2.30;;
31910;SDS011;18457;52.432;16.914;2024-03-17T04:13:06;12.10;;;2.10;;
31910;SDS011;18457;52.432;16.914;2024-03-17T04:15:38;8.80;;;1.70;;
31910;SDS011;18457;52.432;16.914;2024-03-17T04:18:09;9.70;;;2.20;;
31910;SDS011;18457;52.432;16.914;2024-03-17T04:20:41;7.20;;;1.90;;
31910;SDS011;18457;52.432;16.914;2024-03-17T04:23:12;14.60;;;2.80;;
31910;SDS011;18457;52.432;16.914;2024-03-17T04:25:43;9.40;;;2.00;;
31910;SDS011;18457;52.432;16.914;2024-03-17T04:28:15;16.10;;;1.70;;
31910;SDS011;18457;52.432;16.914;2024-03-17T04:30:46;11.40;;;2.70;;
31910;SDS011;18457;52.432;16.914;2024-03-17T04:33:18;8.60;;;2.00;;
31910;SDS011;18457;52.432;16.914;2024-03-17T04:35:49;15.40;;;2.80;;
31910;SDS011;18457;52.432;16.914;2024-03-17T04:38:21;7.10;;;2.00;;
31910;SDS011;18457;52.432;16.914;2024-03-17T04:40:53;6.80;;;1.60;;
31910;SDS011;18457;52.432;16.914;2024-03-17T04:43:33;16.70;;;2.30;;
31910;SDS011;18457;52.432;16.914;2024-03-17T04:46:05;10.90;;;2.00;;
31910;SDS011;18457;52.432;16.914;2024-03-17T04:48:40;9.50;;;2.00;;
31910;SDS011;18457;52.432;16.914;2024-03-17T04:51:15;4.70;;;1.70;;
31910;SDS011;18457;52.432;16.914;2024-03-17T04:53:47;11.60;;;2.20;;
31910;SDS011;18457;52.432;16.914;2024-03-17T04:56:19;16.00;;;3.20;;
31910;SDS011;18457;52.432;16.914;2024-03-17T04:58:50;15.40;;;2.60;;
31910;SDS011;18457;52.432;16.914;2024-03-17T05:01:21;14.00;;;2.10;;
31910;SDS011;18457;52.432;16.914;2024-03-17T05:03:53;9.80;;;2.40;;
31910;SDS011;18457;52.432;16.914;2024-03-17T05:06:24;12.90;;;1.90;;
31910;SDS011;18457;52.432;16.914;2024-03-17T05:08:56;14.90;;;2.00;;
31910;SDS011;18457;52.432;16.914;2024-03-17T05:11:27;11.10;;;2.20;;
31910;SDS011;18457;52.432;16.914;2024-03-17T05:13:58;12.90;;;2.00;;
31910;SDS011;18457;52.432;16.914;2024-03-17T05:16:30;17.30;;;2.40;;
31910;SDS011;18457;52.432;16.914;2024-03-17T05:19:01;9.30;;;2.50;;
31910;SDS011;18457;52.432;16.914;2024-03-17T05:21:33;9.00;;;1.70;;
31910;SDS011;18457;52.432;16.914;2024-03-17T05:24:05;12.60;;;2.90;;
31910;SDS011;18457;52.432;16.914;2024-03-17T05:26:37;6.60;;;2.10;;
31910;SDS011;18457;52.432;16.914;2024-03-17T05:29:08;10.20;;;2.20;;
31910;SDS011;18457;52.432;16.914;2024-03-17T05:31:40;10.40;;;1.50;;
31910;SDS011;18457;52.432;16.914;2024-03-17T05:34:16;12.30;;;2.10;;
31910;SDS011;18457;52.432;16.914;2024-03-17T05:36:47;9.90;;;2.20;;
31910;SDS011;18457;52.432;16.914;2024-03-17T05:39:19;8.80;;;1.90;;
31910;SDS011;18457;52.432;16.914;2024-03-17T05:41:51;12.40;;;3.70;;
31910;SDS011;18457;52.432;16.914;2024-03-17T05:44:22;6.60;;;1.90;;
31910;SDS011;18457;52.432;16.914;2024-03-17T05:46:53;11.20;;;2.30;;
31910;SDS011;18457;52.432;16.914;2024-03-17T05:49:26;10.50;;;2.40;;
31910;SDS011;18457;52.432;16.914;2024-03-17T05:51:57;17.60;;;2.50;;
31910;SDS011;18457;52.432;16.914;2024-03-17T05:54:29;16.20;;;2.50;;
31910;SDS011;18457;52.432;16.914;2024-03-17T05:57:00;13.10;;;2.60;;
31910;SDS011;18457;52.432;16.914;2024-03-17T05:59:33;20.00;;;3.60;;
31910;SDS011;18457;52.432;16.914;2024-03-17T06:02:04;12.40;;;2.90;;
31910;SDS011;18457;52.432;16.914;2024-03-17T06:04:38;9.10;;;3.00;;
31910;SDS011;18457;52.432;16.914;2024-03-17T06:07:10;18.70;;;2.70;;
31910;SDS011;18457;52.432;16.914;2024-03-17T06:09:41;8.80;;;2.90;;
31910;SDS011;18457;52.432;16.914;2024-03-17T06:12:16;13.10;;;2.30;;
31910;SDS011;18457;52.432;16.914;2024-03-17T06:14:47;6.30;;;2.30;;
31910;SDS011;18457;52.432;16.914;2024-03-17T06:17:18;12.70;;;2.10;;
31910;SDS011;18457;52.432;16.914;2024-03-17T06:19:50;17.00;;;3.50;;
31910;SDS011;18457;52.432;16.914;2024-03-17T06:22:21;7.80;;;1.90;;
31910;SDS011;18457;52.432;16.914;2024-03-17T06:24:52;14.50;;;2.70;;
31910;SDS011;18457;52.432;16.914;2024-03-17T06:27:24;11.90;;;2.20;;
31910;SDS011;18457;52.432;16.914;2024-03-17T06:29:55;10.30;;;2.10;;
31910;SDS011;18457;52.432;16.914;2024-03-17T06:32:27;13.20;;;3.10;;
31910;SDS011;18457;52.432;16.914;2024-03-17T06:34:59;8.90;;;2.30;;
31910;SDS011;18457;52.432;16.914;2024-03-17T06:37:31;9.50;;;1.90;;
31910;SDS011;18457;52.432;16.914;2024-03-17T06:40:02;11.50;;;3.30;;
31910;SDS011;18457;52.432;16.914;2024-03-17T06:42:35;6.50;;;2.10;;
31910;SDS011;18457;52.432;16.914;2024-03-17T06:45:06;14.40;;;2.30;;
31910;SDS011;18457;52.432;16.914;2024-03-17T06:47:38;11.10;;;2.10;;
31910;SDS011;18457;52.432;16.914;2024-03-17T06:50:10;11.40;;;2.30;;
31910;SDS011;18457;52.432;16.914;2024-03-17T06:52:41;11.50;;;3.00;;
31910;SDS011;18457;52.432;16.914;2024-03-17T06:55:12;13.80;;;3.10;;
31910;SDS011;18457;52.432;16.914;2024-03-17T06:57:45;7.90;;;2.40;;
31910;SDS011;18457;52.432;16.914;2024-03-17T07:00:16;21.30;;;2.90;;
31910;SDS011;18457;52.432;16.914;2024-03-17T07:02:53;13.20;;;2.50;;
31910;SDS011;18457;52.432;16.914;2024-03-17T07:07:58;7.80;;;2.00;;
31910;SDS011;18457;52.432;16.914;2024-03-17T07:10:29;12.40;;;2.50;;
31910;SDS011;18457;52.432;16.914;2024-03-17T07:13:00;8.50;;;2.20;;
31910;SDS011;18457;52.432;16.914;2024-03-17T07:15:32;6.90;;;2.20;;
31910;SDS011;18457;52.432;16.914;2024-03-17T07:18:03;8.80;;;1.80;;
31910;SDS011;18457;52.432;16.914;2024-03-17T07:20:35;9.50;;;2.50;;
31910;SDS011;18457;52.432;16.914;2024-03-17T07:23:07;17.70;;;2.30;;
31910;SDS011;18457;52.432;16.914;2024-03-17T07:25:39;12.40;;;2.50;;
31910;SDS011;18457;52.432;16.914;2024-03-17T07:28:12;6.40;;;2.40;;
31910;SDS011;18457;52.432;16.914;2024-03-17T07:30:47;9.50;;;2.70;;
31910;SDS011;18457;52.432;16.914;2024-03-17T07:33:19;8.20;;;2.80;;
31910;SDS011;18457;52.432;16.914;2024-03-17T07:35:51;14.60;;;2.60;;
31910;SDS011;18457;52.432;16.914;2024-03-17T07:38:26;8.50;;;2.80;;
31910;SDS011;18457;52.432;16.914;2024-03-17T07:40:59;6.60;;;3.00;;
31910;SDS011;18457;52.432;16.914;2024-03-17T07:43:32;12.60;;;2.50;;
31910;SDS011;18457;52.432;16.914;2024-03-17T07:46:04;9.80;;;2.50;;
31910;SDS011;18457;52.432;16.914;2024-03-17T07:48:38;10.10;;;2.90;;
31910;SDS011;18457;52.432;16.914;2024-03-17T07:51:11;8.60;;;2.70;;
31910;SDS011;18457;52.432;16.914;2024-03-17T07:53:43;7.50;;;3.00;;
31910;SDS011;18457;52.432;16.914;2024-03-17T07:56:16;8.60;;;2.60;;
31910;SDS011;18457;52.432;16.914;2024-03-17T08:01:20;5.30;;;2.30;;
31910;SDS011;18457;52.432;16.914;2024-03-17T08:03:51;7.20;;;2.20;;
31910;SDS011;18457;52.432;16.914;2024-03-17T08:06:24;6.30;;;2.40;;
31910;SDS011;18457;52.432;16.914;2024-03-17T08:08:55;3.20;;;1.90;;
31910;SDS011;18457;52.432;16.914;2024-03-17T08:11:26;3.40;;;2.30;;
31910;SDS011;18457;52.432;16.914;2024-03-17T08:13:59;5.30;;;2.00;;
31910;SDS011;18457;52.432;16.914;2024-03-17T08:16:31;7.80;;;2.30;;
31910;SDS011;18457;52.432;16.914;2024-03-17T08:19:02;11.80;;;2.90;;
31910;SDS011;18457;52.432;16.914;2024-03-17T08:21:35;8.00;;;2.60;;
31910;SDS011;18457;52.432;16.914;2024-03-17T08:24:07;11.00;;;3.70;;
31910;SDS011;18457;52.432;16.914;2024-03-17T08:26:38;7.60;;;2.90;;
31910;SDS011;18457;52.432;16.914;2024-03-17T08:29:10;10.70;;;2.80;;
31910;SDS011;18457;52.432;16.914;2024-03-17T08:31:41;6.50;;;2.90;;
31910;SDS011;18457;52.432;16.914;2024-03-17T08:34:14;10.50;;;3.80;;
31910;SDS011;18457;52.432;16.914;2024-03-17T08:36:45;8.10;;;3.20;;
31910;SDS011;18457;52.432;16.914;2024-03-17T08:39:16;7.40;;;3.10;;
31910;SDS011;18457;52.432;16.914;2024-03-17T08:41:48;14.90;;;3.90;;
31910;SDS011;18457;52.432;16.914;2024-03-17T08:44:19;9.30;;;3.10;;
31910;SDS011;18457;52.432;16.914;2024-03-17T08:46:50;8.20;;;3.40;;
31910;SDS011;18457;52.432;16.914;2024-03-17T08:49:22;8.00;;;3.40;;
31910;SDS011;18457;52.432;16.914;2024-03-17T08:51:55;11.90;;;3.20;;
31910;SDS011;18457;52.432;16.914;2024-03-17T08:54:26;9.40;;;3.50;;
31910;SDS011;18457;52.432;16.914;2024-03-17T08:56:57;7.90;;;3.30;;
31910;SDS011;18457;52.432;16.914;2024-03-17T08:59:29;8.70;;;3.20;;
31910;SDS011;18457;52.432;16.914;2024-03-17T09:02:01;13.50;;;3.90;;
31910;SDS011;18457;52.432;16.914;2024-03-17T09:04:32;9.20;;;3.00;;
31910;SDS011;18457;52.432;16.914;2024-03-17T09:07:04;7.00;;;3.00;;
31910;SDS011;18457;52.432;16.914;2024-03-17T09:09:35;6.40;;;2.30;;
31910;SDS011;18457;52.432;16.914;2024-03-17T09:12:07;5.60;;;2.80;;
31910;SDS011;18457;52.432;16.914;2024-03-17T09:14:38;6.40;;;2.40;;
31910;SDS011;18457;52.432;16.914;2024-03-17T09:17:10;7.60;;;3.00;;
31910;SDS011;18457;52.432;16.914;2024-03-17T09:19:42;8.20;;;2.60;;
31910;SDS011;18457;52.432;16.914;2024-03-17T09:22:14;8.10;;;2.50;;
31910;SDS011;18457;52.432;16.914;2024-03-17T09:24:46;7.20;;;3.30;;
31910;SDS011;18457;52.432;16.914;2024-03-17T09:27:17;6.10;;;2.10;;
31910;SDS011;18457;52.432;16.914;2024-03-17T09:29:51;6.00;;;2.50;;
31910;SDS011;18457;52.432;16.914;2024-03-17T09:32:22;6.60;;;2.50;;
31910;SDS011;18457;52.432;16.914;2024-03-17T09:34:55;10.20;;;3.10;;
31910;SDS011;18457;52.432;16.914;2024-03-17T09:37:29;5.60;;;1.80;;
31910;SDS011;18457;52.432;16.914;2024-03-17T09:40:00;3.30;;;1.50;;
31910;SDS011;18457;52.432;16.914;2024-03-17T09:42:34;6.80;;;1.90;;
31910;SDS011;18457;52.432;16.914;2024-03-17T09:45:07;2.50;;;1.50;;
31910;SDS011;18457;52.432;16.914;2024-03-17T09:47:41;3.00;;;1.50;;
31910;SDS011;18457;52.432;16.914;2024-03-17T09:50:13;4.10;;;1.60;;
31910;SDS011;18457;52.432;16.914;2024-03-17T09:52:47;9.00;;;1.90;;
31910;SDS011;18457;52.432;16.914;2024-03-17T09:55:18;6.60;;;2.70;;
31910;SDS011;18457;52.432;16.914;2024-03-17T09:57:51;7.80;;;2.80;;
31910;SDS011;18457;52.432;16.914;2024-03-17T10:00:22;11.40;;;2.80;;
31910;SDS011;18457;52.432;16.914;2024-03-17T10:02:54;6.50;;;2.60;;
31910;SDS011;18457;52.432;16.914;2024-03-17T10:05:26;6.60;;;2.50;;
31910;SDS011;18457;52.432;16.914;2024-03-17T10:07:57;2.80;;;1.70;;
31910;SDS011;18457;52.432;16.914;2024-03-17T10:10:29;1.20;;;0.90;;
31910;SDS011;18457;52.432;16.914;2024-03-17T10:13:00;4.60;;;1.60;;
31910;SDS011;18457;52.432;16.914;2024-03-17T10:15:33;1.90;;;1.30;;
31910;SDS011;18457;52.432;16.914;2024-03-17T10:18:09;2.10;;;1.20;;
31910;SDS011;18457;52.432;16.914;2024-03-17T10:20:53;3.40;;;1.20;;
31910;SDS011;18457;52.432;16.914;2024-03-17T10:23:26;5.90;;;1.10;;
31910;SDS011;18457;52.432;16.914;2024-03-17T10:25:58;2.10;;;1.30;;
31910;SDS011;18457;52.432;16.914;2024-03-17T10:28:31;2.00;;;1.30;;
31910;SDS011;18457;52.432;16.914;2024-03-17T10:31:03;2.40;;;1.20;;
31910;SDS011;18457;52.432;16.914;2024-03-17T10:33:37;7.70;;;1.80;;
31910;SDS011;18457;52.432;16.914;2024-03-17T10:36:21;4.00;;;1.50;;
31910;SDS011;18457;52.432;16.914;2024-03-17T10:38:54;4.50;;;1.70;;
31910;SDS011;18457;52.432;16.914;2024-03-17T10:41:25;3.20;;;1.80;;
31910;SDS011;18457;52.432;16.914;2024-03-17T10:44:02;3.80;;;2.50;;
31910;SDS011;18457;52.432;16.914;2024-03-17T10:46:37;3.00;;;1.50;;
31910;SDS011;18457;52.432;16.914;2024-03-17T10:49:19;5.00;;;2.60;;
31910;SDS011;18457;52.432;16.914;2024-03-17T10:51:54;3.50;;;2.30;;
31910;SDS011;18457;52.432;16.914;2024-03-17T10:54:30;3.60;;;1.90;;
31910;SDS011;18457;52.432;16.914;2024-03-17T10:57:05;3.40;;;2.00;;
31910;SDS011;18457;52.432;16.914;2024-03-17T10:59:55;4.10;;;1.90;;
31910;SDS011;18457;52.432;16.914;2024-03-17T11:02:29;4.70;;;2.20;;
31910;SDS011;18457;52.432;16.914;2024-03-17T11:05:02;4.70;;;2.60;;
31910;SDS011;18457;52.432;16.914;2024-03-17T11:07:42;5.20;;;2.80;;
31910;SDS011;18457;52.432;16.914;2024-03-17T11:10:16;4.80;;;3.00;;
31910;SDS011;18457;52.432;16.914;2024-03-17T11:12:51;8.30;;;3.00;;
31910;SDS011;18457;52.432;16.914;2024-03-17T11:15:39;8.60;;;3.80;;
31910;SDS011;18457;52.432;16.914;2024-03-17T11:21:20;7.50;;;3.60;;
31910;SDS011;18457;52.432;16.914;2024-03-17T11:23:59;6.40;;;3.20;;
31910;SDS011;18457;52.432;16.914;2024-03-17T11:26:34;7.00;;;3.70;;
31910;SDS011;18457;52.432;16.914;2024-03-17T11:29:23;10.70;;;3.80;;
31910;SDS011;18457;52.432;16.914;2024-03-17T11:31:59;10.20;;;4.30;;
31910;SDS011;18457;52.432;16.914;2024-03-17T11:34:51;7.80;;;4.20;;
31910;SDS011;18457;52.432;16.914;2024-03-17T11:37:46;9.20;;;4.20;;
31910;SDS011;18457;52.432;16.914;2024-03-17T11:40:26;16.00;;;4.80;;
31910;SDS011;18457;52.432;16.914;2024-03-17T11:43:02;10.20;;;4.30;;
31910;SDS011;18457;52.432;16.914;2024-03-17T11:45:36;12.20;;;4.80;;
31910;SDS011;18457;52.432;16.914;2024-03-17T11:48:08;11.20;;;4.80;;
31910;SDS011;18457;52.432;16.914;2024-03-17T11:50:45;12.40;;;5.60;;
31910;SDS011;18457;52.432;16.914;2024-03-17T11:53:17;16.70;;;6.10;;
31910;SDS011;18457;52.432;16.914;2024-03-17T11:55:49;8.40;;;3.20;;
31910;SDS011;18457;52.432;16.914;2024-03-17T11:58:22;10.50;;;4.40;;
31910;SDS011;18457;52.432;16.914;2024-03-17T12:03:25;14.30;;;5.30;;
31910;SDS011;18457;52.432;16.914;2024-03-17T12:05:57;9.10;;;4.30;;
31910;SDS011;18457;52.432;16.914;2024-03-17T12:08:34;13.30;;;4.00;;
31910;SDS011;18457;52.432;16.914;2024-03-17T12:11:14;10.20;;;3.60;;
31910;SDS011;18457;52.432;16.914;2024-03-17T12:13:48;12.10;;;4.80;;
31910;SDS011;18457;52.432;16.914;2024-03-17T12:16:21;7.30;;;3.50;;
31910;SDS011;18457;52.432;16.914;2024-03-17T12:18:53;6.90;;;3.00;;
31910;SDS011;18457;52.432;16.914;2024-03-17T12:21:35;7.90;;;3.00;;
31910;SDS011;18457;52.432;16.914;2024-03-17T12:24:08;7.30;;;2.60;;
31910;SDS011;18457;52.432;16.914;2024-03-17T12:26:48;9.10;;;3.60;;
31910;SDS011;18457;52.432;16.914;2024-03-17T12:29:25;6.40;;;2.10;;
31910;SDS011;18457;52.432;16.914;2024-03-17T12:32:02;8.00;;;2.40;;
31910;SDS011;18457;52.432;16.914;2024-03-17T12:34:35;4.70;;;2.60;;
31910;SDS011;18457;52.432;16.914;2024-03-17T12:37:07;4.50;;;1.80;;
31910;SDS011;18457;52.432;16.914;2024-03-17T12:39:44;3.60;;;1.50;;
31910;SDS011;18457;52.432;16.914;2024-03-17T12:42:22;4.60;;;1.20;;
31910;SDS011;18457;52.432;16.914;2024-03-17T12:44:55;5.00;;;1.80;;
31910;SDS011;18457;52.432;16.914;2024-03-17T12:47:29;2.00;;;1.10;;
31910;SDS011;18457;52.432;16.914;2024-03-17T12:50:05;3.50;;;1.20;;
31910;SDS011;18457;52.432;16.914;2024-03-17T12:52:51;4.50;;;1.10;;
31910;SDS011;18457;52.432;16.914;2024-03-17T12:55:24;6.50;;;1.30;;
31910;SDS011;18457;52.432;16.914;2024-03-17T12:58:13;1.20;;;1.10;;
31910;SDS011;18457;52.432;16.914;2024-03-17T13:01:03;2.60;;;1.30;;
31910;SDS011;18457;52.432;16.914;2024-03-17T13:03:36;2.40;;;1.10;;
31910;SDS011;18457;52.432;16.914;2024-03-17T13:06:20;2.10;;;1.20;;
31910;SDS011;18457;52.432;16.914;2024-03-17T13:08:54;4.70;;;1.40;;
31910;SDS011;18457;52.432;16.914;2024-03-17T13:11:25;6.90;;;1.40;;
31910;SDS011;18457;52.432;16.914;2024-03-17T13:13:57;2.80;;;1.30;;
31910;SDS011;18457;52.432;16.914;2024-03-17T13:16:29;3.80;;;1.50;;
31910;SDS011;18457;52.432;16.914;2024-03-17T13:19:01;2.80;;;1.00;;
31910;SDS011;18457;52.432;16.914;2024-03-17T13:21:32;2.30;;;1.30;;
31910;SDS011;18457;52.432;16.914;2024-03-17T13:24:05;3.10;;;1.00;;
31910;SDS011;18457;52.432;16.914;2024-03-17T13:29:07;1.50;;;0.80;;
31910;SDS011;18457;52.432;16.914;2024-03-17T13:31:39;1.10;;;0.60;;
31910;SDS011;18457;52.432;16.914;2024-03-17T13:34:10;1.30;;;0.90;;
31910;SDS011;18457;52.432;16.914;2024-03-17T13:36:42;1.60;;;0.90;;
31910;SDS011;18457;52.432;16.914;2024-03-17T13:39:13;1.60;;;0.80;;
31910;SDS011;18457;52.432;16.914;2024-03-17T13:41:48;2.00;;;1.10;;
31910;SDS011;18457;52.432;16.914;2024-03-17T13:44:21;1.50;;;1.10;;
31910;SDS011;18457;52.432;16.914;2024-03-17T13:46:53;1.70;;;1.10;;
31910;SDS011;18457;52.432;16.914;2024-03-17T13:49:24;3.00;;;1.60;;
31910;SDS011;18457;52.432;16.914;2024-03-17T13:51:57;1.30;;;0.80;;
31910;SDS011;18457;52.432;16.914;2024-03-17T13:54:28;4.00;;;1.20;;
31910;SDS011;18457;52.432;16.914;2024-03-17T13:57:00;2.90;;;1.20;;
31910;SDS011;18457;52.432;16.914;2024-03-17T13:59:33;1.80;;;1.00;;
31910;SDS011;18457;52.432;16.914;2024-03-17T14:02:05;2.00;;;1.10;;
31910;SDS011;18457;52.432;16.914;2024-03-17T14:04:41;2.60;;;1.20;;
31910;SDS011;18457;52.432;16.914;2024-03-17T14:07:17;1.70;;;1.20;;
31910;SDS011;18457;52.432;16.914;2024-03-17T14:09:48;4.00;;;1.40;;
31910;SDS011;18457;52.432;16.914;2024-03-17T14:12:20;2.60;;;1.30;;
31910;SDS011;18457;52.432;16.914;2024-03-17T14:14:55;7.10;;;1.50;;
31910;SDS011;18457;52.432;16.914;2024-03-17T14:17:26;2.20;;;1.30;;
31910;SDS011;18457;52.432;16.914;2024-03-17T14:19:58;1.70;;;1.20;;
31910;SDS011;18457;52.432;16.914;2024-03-17T14:22:30;3.20;;;1.20;;
31910;SDS011;18457;52.432;16.914;2024-03-17T14:25:01;2.70;;;1.30;;
31910;SDS011;18457;52.432;16.914;2024-03-17T14:27:33;3.70;;;1.90;;
31910;SDS011;18457;52.432;16.914;2024-03-17T14:30:05;3.60;;;2.00;;
31910;SDS011;18457;52.432;16.914;2024-03-17T14:32:37;2.20;;;1.10;;
31910;SDS011;18457;52.432;16.914;2024-03-17T14:35:10;3.60;;;1.30;;
31910;SDS011;18457;52.432;16.914;2024-03-17T14:37:44;6.60;;;2.10;;
31910;SDS011;18457;52.432;16.914;2024-03-17T14:40:17;2.80;;;1.30;;
31910;SDS011;18457;52.432;16.914;2024-03-17T14:42:52;3.80;;;1.30;;
31910;SDS011;18457;52.432;16.914;2024-03-17T14:45:24;1.60;;;1.10;;
31910;SDS011;18457;52.432;16.914;2024-03-17T14:47:55;2.20;;;1.00;;
31910;SDS011;18457;52.432;16.914;2024-03-17T14:50:26;1.00;;;0.80;;
31910;SDS011;18457;52.432;16.914;2024-03-17T14:52:58;2.00;;;0.90;;
31910;SDS011;18457;52.432;16.914;2024-03-17T14:55:29;1.80;;;1.10;;
31910;SDS011;18457;52.432;16.914;2024-03-17T14:58:00;1.70;;;1.00;;
31910;SDS011;18457;52.432;16.914;2024-03-17T15:00:32;2.20;;;1.10;;
31910;SDS011;18457;52.432;16.914;2024-03-17T15:03:03;2.10;;;1.10;;
31910;SDS011;18457;52.432;16.914;2024-03-17T15:05:36;2.40;;;0.70;;
31910;SDS011;18457;52.432;16.914;2024-03-17T15:08:08;1.30;;;0.70;;
31910;SDS011;18457;52.432;16.914;2024-03-17T15:10:40;1.80;;;1.30;;
31910;SDS011;18457;52.432;16.914;2024-03-17T15:13:11;2.40;;;1.00;;
31910;SDS011;18457;52.432;16.914;2024-03-17T15:15:44;2.00;;;0.80;;
31910;SDS011;18457;52.432;16.914;2024-03-17T15:18:16;8.60;;;3.60;;
31910;SDS011;18457;52.432;16.914;2024-03-17T15:20:52;4.50;;;1.50;;